Charleston, SC (29413)

12:29 PM EST on November 26, 2014 (GMT -0500)
James Island Yacht Club | Change Station
CLOSE
Current Station
Personal Weather Station
Location: Charleston, SC
Elevation: 20 ft
Nearby Weather Stations

Elev 20 ft 32.76 °N, 79.92 °W | Updated 13 minutes ago

Overcast
Overcast
53.3 °F
Feels Like 53.3 °F
N
15.0
Wind Variable Wind from West
Gusts 17.0 mph

Today
High -- | Low -- °F
--% Chance of Precip.
Yesterday
High -- | Low -- °F
Precip. -- in
6:59 AM 5:14 PM
Waxing Crescent, 21% visible
Pressure 30.00 in
Visibility 10.0 miles
Clouds Mostly Cloudy 800 ft
Mostly Cloudy 4800 ft
Overcast 8000 ft
Dew Point 51 °F
Humidity 92%
Rainfall 0.29 in
Snow Depth Not available.
UV 2 out of 12
Pollen .40 out of 12
Air Quality Not available.
Flu Activity Not available.
METAR KJZI 261715Z AUTO 28009KT 10SM BKN008 BKN048 OVC080 12/12 A3000 RMK A02 P000

More Conditions Fewer Conditions

Pressure 30.00 in
Visibility 10.0 miles
Clouds Mostly Cloudy 800 ft
Mostly Cloudy 4800 ft
Overcast 8000 ft
Dew Point 51 °F
Humidity 92%
Rainfall 0.29 in
Snow Depth Not available.
UV 2 out of 12
Pollen .40 out of 12
Air Quality Not available.
Flu Activity Not available.
METAR KJZI 261715Z AUTO 28009KT 10SM BKN008 BKN048 OVC080 12/12 A3000 RMK A02 P000

More Conditions Fewer Conditions

10-Day Weather Forecast

Almanac

Astronomy

Nov. 26, 2014 Rise Set
Actual Time
Civil Twilight
Nautical Twilight
Astronomical Twilight
Moon
Length of Visible Light
Length of Day
Tomorrow will be .
, % of the Moon is Illuminated

Today's Extremes

State Highs State Lows

Community

WunderPhotos

Upload Photos

1,773,800 photos uploaded!

WunderBlogs® & News

Nearby

Air Quality

  Air Quality AQ Index Pollutant
Not available.

Snow Depth

Station Depth Elevation

Earthquake Activity

City Distance Mag. Time & Date
Minimum magnitude displayed is 2.5.

Coastal Water Temperatures

Place Temperature

Nearby Weather Stations